Time;durP1;ratioP1;P1;durP2;ratioP2;P2;SDS_P1;SDS_P2;PMS_P1;PMS_P2;Temp;Humidity;BMP_temperature;BMP_pressure;BME280_temperature;BME280_humidity;BME280_pressure;Samples;Min_cycle;Max_cycle;Signal;HPM_P1;HPM_P2
2021/10/22 00:02:11;;;;;;;;;20.50;19.50;;;;;9.87;73.16;101741.56;5071212;28;58945;-74
2021/10/22 00:04:37;;;;;;;;;25.50;18.75;;;;;9.86;73.24;101742.41;5058162;28;52905;-73
2021/10/22 00:07:03;;;;;;;;;16.50;16.00;;;;;9.84;73.09;101736.19;5058628;28;45670;-73
2021/10/22 00:09:28;;;;;;;;;20.00;19.50;;;;;9.76;72.91;101727.16;5058693;28;45293;-73
2021/10/22 00:11:54;;;;;;;;;24.75;17.25;;;;;9.80;72.94;101736.97;5071877;28;46481;-74
2021/10/22 00:14:19;;;;;;;;;20.50;18.00;;;;;9.79;72.75;101740.44;5078350;28;51908;-74
2021/10/22 00:16:45;;;;;;;;;17.25;17.25;;;;;9.78;73.10;101729.84;5078810;28;45138;-73
2021/10/22 00:19:10;;;;;;;;;23.25;18.00;;;;;9.72;73.44;101730.56;5058418;28;45553;-73
2021/10/22 00:21:36;;;;;;;;;21.50;18.25;;;;;9.77;73.21;101733.34;5069121;28;45507;-74
2021/10/22 00:24:01;;;;;;;;;17.00;15.00;;;;;9.68;73.35;101726.03;5077924;28;52512;-75
2021/10/22 00:26:27;;;;;;;;;24.00;18.75;;;;;9.76;73.38;101744.75;5078179;28;45258;-73
2021/10/22 00:28:52;;;;;;;;;18.75;15.00;;;;;9.74;73.44;101739.41;5078167;28;45546;-73
2021/10/22 00:31:18;;;;;;;;;18.50;16.75;;;;;9.71;73.18;101737.56;5077475;28;46548;-74
2021/10/22 00:33:43;;;;;;;;;15.75;13.00;;;;;9.72;73.34;101733.19;5072469;28;45597;-74
2021/10/22 00:36:11;;;;;;;;;13.50;13.00;;;;;9.67;73.53;101734.81;5057626;28;52166;-74
2021/10/22 00:38:36;;;;;;;;;16.00;12.25;;;;;9.71;73.32;101736.69;5058990;28;45629;-74
2021/10/22 00:41:02;;;;;;;;;17.00;16.00;;;;;9.71;73.36;101741.97;5077672;28;47326;-73
2021/10/22 00:43:32;;;;;;;;;18.75;12.50;;;;;9.69;73.04;101738.38;5077245;28;58151;-74
2021/10/22 00:45:57;;;;;;;;;19.25;17.50;;;;;9.67;73.10;101735.69;5078232;28;45335;-74
2021/10/22 00:48:23;;;;;;;;;14.00;12.50;;;;;9.66;73.24;101740.94;5054227;28;45391;-73
2021/10/22 00:50:49;;;;;;;;;23.75;13.75;;;;;9.64;72.92;101739.97;5065562;28;45594;-75
2021/10/22 00:53:14;;;;;;;;;18.25;12.25;;;;;9.63;73.12;101740.84;5077649;28;45355;-73
2021/10/22 00:55:40;;;;;;;;;15.25;13.50;;;;;9.61;72.89;101737.28;5050645;28;45308;-73
2021/10/22 00:58:05;;;;;;;;;19.00;14.25;;;;;9.59;72.69;101737.22;5039695;28;45422;-74
2021/10/22 01:00:31;;;;;;;;;18.25;14.00;;;;;9.55;72.94;101734.44;5042917;28;46383;-75
2021/10/22 01:02:57;;;;;;;;;22.00;16.25;;;;;9.56;72.95;101739.75;5048893;28;45415;-74
2021/10/22 01:05:23;;;;;;;;;16.75;13.00;;;;;9.55;72.88;101745.00;5039616;28;45465;-74
2021/10/22 01:07:48;;;;;;;;;19.25;12.75;;;;;9.53;72.67;101750.22;5057635;28;45535;-74
2021/10/22 01:10:14;;;;;;;;;14.75;14.00;;;;;9.51;72.99;101745.75;5040866;28;59468;-74
2021/10/22 01:12:40;;;;;;;;;18.25;15.75;;;;;9.49;72.75;101739.56;5063116;28;58128;-74
2021/10/22 01:15:06;;;;;;;;;15.50;13.25;;;;;9.47;72.86;101742.13;5077825;28;45429;-74
2021/10/22 01:17:39;;;;;;;;;13.75;13.25;;;;;9.43;72.41;101746.44;5071365;28;45169;-75
2021/10/22 01:20:13;;;;;;;;;13.00;12.75;;;;;9.37;72.63;101735.66;5057472;28;46598;-74
2021/10/22 01:22:39;;;;;;;;;21.00;12.00;;;;;9.42;72.61;101757.78;5077570;28;45401;-74
2021/10/22 01:25:06;;;;;;;;;16.00;12.50;;;;;9.40;72.79;101759.50;5077366;28;45338;-74
2021/10/22 01:27:32;;;;;;;;;17.00;13.00;;;;;9.38;72.68;101753.28;5059387;28;45479;-74
2021/10/22 01:30:01;;;;;;;;;14.00;12.00;;;;;9.38;73.13;101763.84;5074454;28;46468;-74
2021/10/22 01:32:26;;;;;;;;;13.00;12.00;;;;;9.36;72.80;101768.16;5076820;28;45386;-73
2021/10/22 01:34:52;;;;;;;;;13.50;12.00;;;;;9.34;72.62;101756.69;5077012;28;45460;-74
2021/10/22 01:37:17;;;;;;;;;16.75;12.75;;;;;9.34;72.93;101763.69;5073342;28;45363;-74
2021/10/22 01:39:42;;;;;;;;;15.00;12.25;;;;;9.31;72.54;101759.19;5073360;28;51818;-74
2021/10/22 01:42:08;;;;;;;;;12.75;12.75;;;;;9.28;72.65;101759.13;5069621;28;59095;-74
2021/10/22 01:44:34;;;;;;;;;14.00;12.00;;;;;9.27;72.61;101759.97;5066801;28;56287;-74
2021/10/22 01:46:59;;;;;;;;;13.50;12.00;;;;;9.26;72.82;101759.91;5076389;28;45436;-74
2021/10/22 01:49:25;;;;;;;;;16.00;13.25;;;;;9.24;72.68;101770.41;5065137;28;49053;-73
2021/10/22 01:51:50;;;;;;;;;14.25;11.00;;;;;9.18;72.92;101762.31;5071910;28;45427;-74
2021/10/22 01:54:16;;;;;;;;;16.00;13.75;;;;;9.25;72.85;101774.84;5075309;28;55225;-73
2021/10/22 01:56:41;;;;;;;;;13.75;11.00;;;;;9.25;73.08;101772.19;5063321;28;45340;-73
2021/10/22 01:59:07;;;;;;;;;16.75;15.75;;;;;9.25;72.91;101761.66;5083255;28;58364;-75
2021/10/22 02:01:32;;;;;;;;;16.25;13.75;;;;;9.23;72.77;101763.34;5082924;28;59564;-73
2021/10/22 02:03:58;;;;;;;;;13.50;12.50;;;;;9.23;72.81;101768.63;5083709;28;45347;-75
2021/10/22 02:06:23;;;;;;;;;11.00;11.00;;;;;9.22;72.82;101772.13;5083996;28;45355;-73
2021/10/22 02:08:49;;;;;;;;;12.00;11.00;;;;;9.22;72.77;101771.22;5083282;28;47370;-74
2021/10/22 02:11:14;;;;;;;;;12.25;11.25;;;;;9.21;73.17;101769.41;5083242;28;45446;-74
2021/10/22 02:13:40;;;;;;;;;12.00;11.75;;;;;9.18;73.19;101764.97;5083958;28;45307;-73
2021/10/22 02:16:05;;;;;;;;;16.75;12.25;;;;;9.22;73.33;101758.06;5083316;28;45620;-74
2021/10/22 02:18:30;;;;;;;;;14.50;13.75;;;;;9.22;73.03;101766.84;5083195;28;55983;-74
2021/10/22 02:20:56;;;;;;;;;15.25;13.00;;;;;9.21;73.23;101764.13;5075838;28;45312;-74
2021/10/22 02:23:21;;;;;;;;;15.25;11.00;;;;;9.20;73.14;101771.16;5083927;28;45327;-73
2021/10/22 02:25:47;;;;;;;;;12.50;12.00;;;;;9.19;73.16;101764.09;5083303;28;45272;-74
2021/10/22 02:28:12;;;;;;;;;13.00;12.00;;;;;9.18;72.89;101754.41;5082847;28;46585;-74
2021/10/22 02:30:38;;;;;;;;;15.25;13.50;;;;;9.17;72.79;101768.44;5075023;28;45300;-73
2021/10/22 02:33:03;;;;;;;;;12.50;11.25;;;;;9.14;73.10;101757.78;5083500;28;45333;-73
2021/10/22 02:35:29;;;;;;;;;16.00;14.75;;;;;9.16;73.05;101759.66;5075707;28;52926;-74
2021/10/22 02:37:54;;;;;;;;;17.25;13.00;;;;;9.14;72.84;101758.69;5076046;28;55497;-74
2021/10/22 02:40:20;;;;;;;;;14.75;13.00;;;;;9.08;72.40;101744.44;5076553;28;50528;-73
2021/10/22 02:42:45;;;;;;;;;16.00;13.75;;;;;9.10;72.77;101771.72;5073195;28;45206;-73
2021/10/22 02:45:10;;;;;;;;;13.00;11.50;;;;;9.08;73.06;101771.66;5062954;28;45395;-74
2021/10/22 02:47:36;;;;;;;;;16.75;13.50;;;;;9.08;72.98;101784.84;5063840;28;46087;-75
2021/10/22 02:50:02;;;;;;;;;13.00;12.50;;;;;9.08;73.00;101779.56;5067691;28;56302;-74
2021/10/22 02:52:28;;;;;;;;;11.75;11.75;;;;;9.07;73.03;101776.91;5082406;28;46647;-74
2021/10/22 02:54:53;;;;;;;;;16.75;15.50;;;;;9.08;73.25;101781.31;5080890;28;45328;-74
2021/10/22 02:57:18;;;;;;;;;15.50;12.50;;;;;9.07;73.21;101769.00;5077486;28;61077;-74
2021/10/22 02:59:44;;;;;;;;;14.75;13.75;;;;;9.08;73.09;101782.19;5082815;28;57028;-74
2021/10/22 03:02:09;;;;;;;;;14.00;11.00;;;;;9.07;72.90;101782.16;5082748;28;45293;-74
2021/10/22 03:04:35;;;;;;;;;13.50;13.25;;;;;9.06;73.24;101777.75;5083325;28;46468;-74
2021/10/22 03:07:00;;;;;;;;;15.00;11.25;;;;;9.06;73.15;101790.91;5082134;28;50371;-73
2021/10/22 03:09:25;;;;;;;;;12.00;10.75;;;;;9.05;73.19;101783.84;5077246;28;55008;-73
2021/10/22 03:11:51;;;;;;;;;16.00;13.25;;;;;9.04;73.08;101779.41;5059578;28;50751;-74
2021/10/22 03:14:16;;;;;;;;;16.50;11.75;;;;;9.03;73.35;101769.72;5058788;28;51369;-74
2021/10/22 03:16:43;;;;;;;;;10.75;9.25;;;;;9.02;73.30;101774.09;5058679;28;56240;-74
2021/10/22 03:19:08;;;;;;;;;15.75;13.50;;;;;8.99;73.11;101770.47;5078282;28;45299;-74
2021/10/22 03:21:34;;;;;;;;;11.50;11.50;;;;;9.02;73.17;101783.75;5079714;28;45446;-74
2021/10/22 03:23:59;;;;;;;;;11.75;11.25;;;;;9.01;72.90;101789.88;5079538;28;45398;-73
2021/10/22 03:26:25;;;;;;;;;16.00;11.25;;;;;9.00;72.91;101780.16;5060803;28;47331;-74
2021/10/22 03:28:50;;;;;;;;;9.00;9.00;;;;;8.98;73.22;101780.13;5079082;28;45188;-74
2021/10/22 03:31:16;;;;;;;;;15.00;11.25;;;;;8.98;73.26;101782.75;5060806;28;45474;-74
2021/10/22 03:33:41;;;;;;;;;14.75;10.50;;;;;8.97;73.01;101780.06;5064524;28;45333;-74
2021/10/22 03:36:07;;;;;;;;;12.50;10.75;;;;;8.97;72.69;101785.34;5073593;28;46263;-74
2021/10/22 03:38:32;;;;;;;;;8.75;8.75;;;;;8.91;73.00;101773.75;5067256;28;51429;-75
2021/10/22 03:40:57;;;;;;;;;9.50;8.25;;;;;8.91;72.73;101781.66;5059700;28;45813;-74
2021/10/22 03:43:23;;;;;;;;;9.75;9.75;;;;;8.90;72.96;101774.63;5058692;28;48877;-74
2021/10/22 03:45:48;;;;;;;;;12.00;10.00;;;;;8.87;73.14;101776.25;5062021;28;54958;-73
2021/10/22 03:48:14;;;;;;;;;11.50;7.75;;;;;8.85;73.08;101776.19;5074119;28;45509;-73
2021/10/22 03:50:39;;;;;;;;;8.50;8.50;;;;;8.85;72.82;101781.47;5063123;28;47368;-74
2021/10/22 03:53:06;;;;;;;;;12.75;12.00;;;;;8.85;72.90;101773.56;5058315;28;53111;-74
2021/10/22 03:55:32;;;;;;;;;11.00;8.25;;;;;8.84;72.64;101777.03;5068265;28;46531;-74
2021/10/22 03:57:57;;;;;;;;;12.50;8.00;;;;;8.81;72.65;101783.94;5078096;28;56258;-73
2021/10/22 04:00:22;;;;;;;;;10.00;6.00;;;;;8.80;72.50;101783.06;5058739;28;51125;-74
2021/10/22 04:02:48;;;;;;;;;10.25;9.50;;;;;8.81;72.72;101787.47;5058366;28;47477;-73
2021/10/22 04:05:13;;;;;;;;;11.75;7.00;;;;;8.79;72.88;101783.91;5064768;28;45624;-73
2021/10/22 04:07:39;;;;;;;;;8.25;6.75;;;;;8.77;72.50;101785.56;5078191;28;45368;-73
2021/10/22 04:10:05;;;;;;;;;8.00;8.00;;;;;8.70;72.32;101774.78;5069984;28;45355;-74
2021/10/22 04:12:31;;;;;;;;;10.75;7.25;;;;;8.72;72.84;101775.72;5071699;28;45614;-74
2021/10/22 04:14:56;;;;;;;;;10.25;8.25;;;;;8.73;72.74;101783.66;5062058;28;45715;-74
2021/10/22 04:17:22;;;;;;;;;7.75;7.75;;;;;8.72;72.65;101781.88;5073443;28;45284;-74
2021/10/22 04:19:47;;;;;;;;;10.00;10.00;;;;;8.70;72.70;101783.56;5057980;28;45407;-74
2021/10/22 04:22:13;;;;;;;;;7.50;7.50;;;;;8.68;72.61;101782.59;5071231;28;45454;-74
2021/10/22 04:24:38;;;;;;;;;8.50;7.00;;;;;8.67;72.30;101783.47;5057996;28;49587;-74
2021/10/22 04:27:04;;;;;;;;;10.75;9.00;;;;;8.63;72.51;101785.13;5043046;28;45300;-74
2021/10/22 04:29:29;;;;;;;;;12.00;9.00;;;;;8.64;72.49;101780.75;5078648;28;45260;-73
2021/10/22 04:31:54;;;;;;;;;7.75;7.75;;;;;8.60;72.29;101785.00;5078071;28;45285;-73
2021/10/22 04:34:20;;;;;;;;;7.75;7.00;;;;;8.61;72.31;101799.94;5066904;28;56289;-73
2021/10/22 04:36:47;;;;;;;;;7.00;6.00;;;;;8.57;72.44;101794.50;5057353;28;45517;-76
2021/10/22 04:41:57;;;;;;;;;10.00;10.00;;;;;8.56;72.34;101813.78;5075188;28;45255;-75
2021/10/22 04:44:25;;;;;;;;;10.75;8.25;;;;;8.58;72.69;101812.13;5059910;28;47515;-74
2021/10/22 04:46:51;;;;;;;;;13.00;10.00;;;;;8.55;72.85;101814.63;5065629;28;45497;-75
2021/10/22 04:49:16;;;;;;;;;7.00;7.00;;;;;8.58;72.51;101823.56;5039001;28;54155;-74
2021/10/22 04:51:42;;;;;;;;;15.50;11.75;;;;;8.54;73.04;101811.13;5045188;28;49863;-75
2021/10/22 04:54:07;;;;;;;;;10.75;10.75;;;;;8.62;73.08;101824.53;5056225;28;47562;-74
2021/10/22 04:56:32;;;;;;;;;13.25;11.50;;;;;8.64;72.82;101825.50;5075640;28;61513;-75
2021/10/22 04:58:58;;;;;;;;;14.50;10.75;;;;;8.64;73.08;101833.41;5077272;28;45313;-75
2021/10/22 05:01:23;;;;;;;;;12.50;12.50;;;;;8.64;72.64;101828.13;5066031;28;45435;-75
2021/10/22 05:03:49;;;;;;;;;16.75;13.50;;;;;8.66;72.84;101836.97;5077360;28;46633;-73
2021/10/22 05:06:14;;;;;;;;;12.00;11.25;;;;;8.66;72.55;101850.13;5077490;28;46693;-73
2021/10/22 05:08:40;;;;;;;;;15.00;13.00;;;;;8.64;72.64;101841.28;5068762;28;45484;-74
2021/10/22 05:11:05;;;;;;;;;15.50;11.25;;;;;8.64;72.78;101838.66;5057912;28;45655;-73
2021/10/22 05:13:31;;;;;;;;;13.75;11.25;;;;;8.54;72.70;101824.28;5066778;28;58915;-74
2021/10/22 05:15:56;;;;;;;;;17.00;15.25;;;;;8.62;72.61;101837.69;5032197;28;45447;-75
2021/10/22 05:18:22;;;;;;;;;13.00;9.75;;;;;8.62;72.57;101829.78;5058075;28;45642;-74
2021/10/22 05:20:47;;;;;;;;;19.25;13.75;;;;;8.60;72.51;101827.13;5058794;28;45526;-73
2021/10/22 05:23:12;;;;;;;;;16.00;11.50;;;;;8.60;72.58;101835.00;5073433;28;56674;-73
2021/10/22 05:25:38;;;;;;;;;14.50;12.25;;;;;8.60;72.76;101834.13;5052298;28;47441;-73
2021/10/22 05:28:03;;;;;;;;;15.50;11.75;;;;;8.60;72.83;101829.75;5076671;28;45534;-73
2021/10/22 05:30:29;;;;;;;;;14.00;11.75;;;;;8.60;72.56;101828.84;5075295;28;45513;-74
2021/10/22 05:32:54;;;;;;;;;15.75;14.00;;;;;8.58;72.62;101831.44;5075989;28;54730;-74
2021/10/22 05:35:19;;;;;;;;;15.75;13.75;;;;;8.58;72.67;101839.34;5063065;28;45466;-73
2021/10/22 05:37:45;;;;;;;;;16.50;13.25;;;;;8.58;72.30;101835.81;5065429;28;48957;-74
2021/10/22 05:40:10;;;;;;;;;12.25;11.25;;;;;8.56;72.37;101843.63;5066900;28;45579;-73
2021/10/22 05:42:36;;;;;;;;;17.50;13.75;;;;;8.54;72.60;101836.53;5073256;28;47390;-72
2021/10/22 05:45:02;;;;;;;;;15.50;11.50;;;;;8.55;72.39;101835.69;5068451;28;57357;-73
2021/10/22 05:47:28;;;;;;;;;14.25;12.00;;;;;8.53;72.90;101840.03;5072616;28;45460;-74
2021/10/22 05:49:53;;;;;;;;;17.25;14.75;;;;;8.53;72.68;101846.19;5067099;28;45595;-72
2021/10/22 05:52:18;;;;;;;;;12.00;12.00;;;;;8.52;72.79;101833.88;5072821;28;45605;-72
2021/10/22 05:54:44;;;;;;;;;20.25;15.00;;;;;8.52;72.66;101843.47;5068253;28;59734;-73
2021/10/22 05:57:09;;;;;;;;;15.75;14.75;;;;;8.53;72.86;101840.03;5067848;28;45504;-72
2021/10/22 05:59:35;;;;;;;;;11.75;10.50;;;;;8.53;72.83;101835.66;5070146;28;53923;-71
2021/10/22 06:02:00;;;;;;;;;14.50;14.50;;;;;8.52;72.61;101839.13;5068099;28;59106;-72
2021/10/22 06:04:26;;;;;;;;;12.50;12.00;;;;;8.53;72.49;101853.19;5065001;28;45532;-72
2021/10/22 06:06:51;;;;;;;;;16.75;12.50;;;;;8.52;72.46;101846.09;5068615;28;45648;-72
2021/10/22 06:09:17;;;;;;;;;12.75;11.00;;;;;8.53;72.33;101847.91;5070065;28;45615;-72
2021/10/22 06:11:42;;;;;;;;;11.00;11.00;;;;;8.51;72.45;101846.94;5069150;28;46268;-72
2021/10/22 06:14:07;;;;;;;;;12.75;12.50;;;;;8.47;72.45;101842.41;5067212;28;57618;-72
2021/10/22 06:16:33;;;;;;;;;16.75;11.75;;;;;8.44;72.76;101842.31;5070360;28;45545;-71
2021/10/22 06:19:03;;;;;;;;;13.25;12.00;;;;;8.50;72.50;101853.06;5053430;28;45924;-72
2021/10/22 06:21:34;;;;;;;;;14.25;11.00;;;;;8.48;72.18;101853.03;5072792;28;47307;-71
2021/10/22 06:24:03;;;;;;;;;12.25;11.50;;;;;8.48;72.57;101857.38;5070865;28;45678;-71
2021/10/22 06:26:40;;;;;;;;;15.75;12.00;;;;;8.49;72.51;101854.81;5072111;28;45442;-72
2021/10/22 06:29:07;;;;;;;;;16.00;12.75;;;;;8.49;72.81;101856.53;5072346;28;45497;-71
2021/10/22 06:31:32;;;;;;;;;16.50;13.25;;;;;8.50;72.30;101858.31;5072905;28;47409;-72
2021/10/22 06:33:58;;;;;;;;;15.00;13.50;;;;;8.43;72.40;101843.16;5053530;28;46276;-72
2021/10/22 06:36:24;;;;;;;;;19.75;13.50;;;;;8.49;72.53;101867.06;5067280;28;45452;-71
2021/10/22 06:38:50;;;;;;;;;19.50;12.00;;;;;8.45;72.48;101852.91;5067956;28;45347;-73
2021/10/22 06:41:15;;;;;;;;;15.00;13.50;;;;;8.49;72.43;101881.13;5063533;28;47708;-72
2021/10/22 06:43:41;;;;;;;;;15.50;12.00;;;;;8.49;72.43;101886.38;5053056;28;45931;-72
2021/10/22 06:46:07;;;;;;;;;18.25;14.50;;;;;8.50;72.37;101893.44;5073306;28;45445;-71
2021/10/22 06:48:34;;;;;;;;;19.25;15.00;;;;;8.54;72.45;101897.09;5074140;28;45651;-72
2021/10/22 06:51:00;;;;;;;;;16.75;13.75;;;;;8.55;72.75;101904.13;5071485;28;46631;-72
2021/10/22 06:53:25;;;;;;;;;21.00;18.75;;;;;8.54;72.64;101891.81;5074806;28;58056;-76
2021/10/22 06:55:50;;;;;;;;;17.00;16.75;;;;;8.53;72.21;101904.09;5073096;28;45512;-77
2021/10/22 06:58:16;;;;;;;;;21.75;20.50;;;;;8.44;72.43;101892.31;5068788;28;45545;-75
2021/10/22 07:00:45;;;;;;;;;26.00;19.50;;;;;8.35;72.74;101885.84;5059668;28;45685;-76
2021/10/22 07:03:16;;;;;;;;;25.75;19.00;;;;;8.53;72.80;101909.34;5069377;28;45370;-76
2021/10/22 07:08:06;;;;;;;;;16.50;13.00;;;;;8.62;72.43;101903.50;5046334;28;45739;-75
2021/10/22 07:11:09;;;;;;;;;16.75;14.25;;;;;8.69;72.52;101902.03;5067862;28;50898;-76
2021/10/22 07:13:38;;;;;;;;;13.50;7.50;;;;;8.73;72.52;101904.78;5074033;28;45533;-77
2021/10/22 07:16:07;;;;;;;;;13.25;12.00;;;;;8.78;72.94;101915.50;5072857;28;45418;-78
2021/10/22 07:18:32;;;;;;;;;10.25;9.00;;;;;8.82;72.74;101912.13;5073471;28;45505;-76
2021/10/22 07:20:59;;;;;;;;;10.25;7.00;;;;;8.84;72.90;101900.81;5056632;28;53228;-76
2021/10/22 07:23:25;;;;;;;;;12.00;10.75;;;;;8.90;72.76;101910.69;5069859;28;45594;-75
2021/10/22 07:25:50;;;;;;;;;13.50;10.50;;;;;8.91;73.01;101913.34;5076323;28;45522;-76
2021/10/22 07:28:16;;;;;;;;;10.50;9.00;;;;;8.93;72.81;101916.94;5069397;28;51649;-76
2021/10/22 07:30:44;;;;;;;;;9.25;9.00;;;;;8.97;72.75;101917.94;5070845;28;47032;-75
2021/10/22 07:33:09;;;;;;;;;9.75;7.00;;;;;8.98;72.53;101917.09;5076035;28;45676;-76
2021/10/22 07:35:39;;;;;;;;;14.50;7.00;;;;;9.03;72.78;101920.78;5152538;22;45522;-75
2021/10/22 07:38:09;;;;;;;;;8.00;7.00;;;;;9.06;72.90;101920.00;4947095;28;45495;-76
2021/10/22 07:40:35;;;;;;;;;6.50;6.00;;;;;9.10;72.74;101930.69;4961129;28;46435;-76
2021/10/22 07:43:00;;;;;;;;;6.50;3.00;;;;;9.13;72.57;101927.28;4952205;28;45576;-77
2021/10/22 07:45:26;;;;;;;;;5.50;5.50;;;;;9.15;72.68;101923.81;4950585;28;45503;-76
2021/10/22 07:47:51;;;;;;;;;6.25;4.50;;;;;9.21;72.68;101922.25;4955236;28;45469;-78
2021/10/22 07:50:18;;;;;;;;;7.50;4.25;;;;;9.23;71.83;101929.38;4958718;28;57451;-76
2021/10/22 07:52:44;;;;;;;;;4.75;4.75;;;;;9.22;72.00;101913.53;4950687;28;45411;-81
2021/10/22 07:55:10;;;;;;;;;2.00;2.00;;;;;9.24;71.54;101922.38;4949976;28;45378;-77
2021/10/22 07:57:35;;;;;;;;;7.00;3.00;;;;;9.36;71.30;101936.84;4952650;28;45407;-77
2021/10/22 08:00:00;;;;;;;;;3.00;1.67;;;;;9.43;72.23;101938.84;4943090;28;46959;-73
2021/10/22 08:02:26;;;;;;;;;3.00;2.00;;;;;9.51;71.79;101951.38;4947996;28;45503;-72
2021/10/22 08:04:51;;;;;;;;;2.33;2.33;;;;;9.58;71.83;101951.63;4940328;28;45420;-72
2021/10/22 08:07:22;;;;;;;;;1.00;1.00;;;;;9.67;71.63;101954.56;4953537;28;45430;-72
2021/10/22 08:09:48;;;;;;;;;4.33;2.00;;;;;9.75;70.96;101962.75;4963133;28;46502;-73
2021/10/22 08:12:14;;;;;;;;;7.00;3.00;;;;;9.75;72.00;101951.28;4951542;28;45624;-72
2021/10/22 08:14:41;;;;;;;;;4.00;2.00;;;;;9.84;71.48;101957.75;4946266;28;45578;-72
2021/10/22 08:17:07;;;;;;;;;2.33;2.00;;;;;9.90;71.10;101967.59;4948411;28;45442;-72
2021/10/22 08:19:32;;;;;;;;;9.50;3.00;;;;;9.95;71.07;101974.81;4948255;28;56339;-72
2021/10/22 08:24:41;;;;;;;;;5.33;3.67;;;;;10.02;70.88;101980.31;4951396;28;45758;-72
2021/10/22 08:27:07;;;;;;;;;1.33;1.33;;;;;10.06;70.86;101987.44;4950933;28;45556;-72
2021/10/22 08:29:33;;;;;;;;;2.00;2.00;;;;;10.05;68.18;101989.19;4953868;28;46401;-72
2021/10/22 08:31:58;;;;;;;;;1.67;0.00;;;;;10.11;69.19;101985.84;4950019;28;45447;-72
2021/10/22 08:34:24;;;;;;;;;2.33;2.00;;;;;10.15;70.08;101993.03;4962339;28;45454;-72
2021/10/22 08:36:49;;;;;;;;;4.00;2.67;;;;;10.16;70.02;101992.19;4910484;28;1165508;-72
2021/10/22 08:39:16;;;;;;;;;6.00;2.00;;;;;10.18;69.57;101993.13;4952235;28;46295;-72
2021/10/22 08:41:41;;;;;;;;;3.00;2.67;;;;;10.23;70.31;102004.75;4951742;28;45292;-72
2021/10/22 08:44:07;;;;;;;;;2.67;2.67;;;;;10.22;69.83;101992.34;4945456;28;52902;-72
2021/10/22 08:46:32;;;;;;;;;2.00;2.00;;;;;10.30;69.74;102001.47;4950964;28;45528;-73
2021/10/22 08:48:58;;;;;;;;;2.00;2.00;;;;;10.33;69.98;101993.63;4951509;28;45477;-72
2021/10/22 08:51:25;;;;;;;;;3.33;2.00;;;;;10.38;69.66;101999.03;4957532;28;45930;-72
2021/10/22 08:53:50;;;;;;;;;5.33;2.33;;;;;10.39;69.97;101991.19;4943273;28;45515;-72
2021/10/22 08:56:17;;;;;;;;;2.00;2.00;;;;;10.43;70.01;101990.41;4949038;28;45557;-72
2021/10/22 08:58:42;;;;;;;;;3.67;2.00;;;;;10.52;69.44;101994.19;4953158;28;46735;-72
2021/10/22 09:01:07;;;;;;;;;3.00;2.33;;;;;10.55;69.44;101989.91;4947261;28;57255;-72
2021/10/22 09:03:39;;;;;;;;;5.00;2.00;;;;;10.58;68.77;101995.25;4950295;28;45402;-72
2021/10/22 09:06:09;;;;;;;;;3.67;2.00;;;;;10.64;69.33;101999.81;4947891;28;45477;-71
2021/10/22 09:08:36;;;;;;;;;2.67;2.67;;;;;10.70;69.00;102000.00;4947333;28;47476;-72
2021/10/22 09:11:02;;;;;;;;;2.33;2.00;;;;;10.74;69.25;102004.53;4951930;28;45941;-72
2021/10/22 09:13:29;;;;;;;;;3.67;2.00;;;;;10.78;68.73;102014.34;4952393;28;45521;-72
2021/10/22 09:15:56;;;;;;;;;3.33;3.00;;;;;10.81;69.08;102011.78;4948661;28;45662;-72
2021/10/22 09:18:24;;;;;;;;;5.00;3.00;;;;;10.84;68.80;102014.50;4946764;28;47540;-72
2021/10/22 09:20:55;;;;;;;;;3.33;2.33;;;;;10.85;67.98;102010.13;4949346;28;45438;-72
2021/10/22 09:23:27;;;;;;;;;2.67;2.00;;;;;10.87;68.86;102011.97;4947915;28;45514;-72
2021/10/22 09:25:54;;;;;;;;;2.33;2.00;;;;;10.94;68.17;102019.22;4952076;28;45600;-72
2021/10/22 09:28:26;;;;;;;;;5.33;3.00;;;;;10.97;68.84;102015.75;4955820;28;47511;-73
2021/10/22 09:30:52;;;;;;;;;3.00;2.67;;;;;11.05;68.83;102029.19;4950353;28;45305;-72
2021/10/22 09:33:20;;;;;;;;;7.00;2.67;;;;;11.09;68.97;102036.38;4946254;28;45537;-73
2021/10/22 09:35:47;;;;;;;;;3.00;3.00;;;;;11.13;68.87;102032.94;4937773;28;45498;-72
2021/10/22 09:38:30;;;;;;;;;3.67;3.00;;;;;11.17;68.87;102024.25;4945927;28;46248;-73
2021/10/22 09:41:07;;;;;;;;;4.33;4.00;;;;;11.24;68.85;102036.81;4932350;28;45474;-72
2021/10/22 09:43:34;;;;;;;;;4.67;2.00;;;;;11.30;68.70;102025.50;4952740;28;45399;-72
2021/10/22 09:46:09;;;;;;;;;7.00;3.00;;;;;11.37;69.15;102030.09;4950360;28;45526;-72
2021/10/22 09:48:35;;;;;;;;;7.33;5.00;;;;;11.41;68.97;102029.31;4948236;28;46769;-72
2021/10/22 09:51:23;;;;;;;;;4.00;4.00;;;;;11.46;69.16;102027.69;4935320;28;45438;-72
2021/10/22 09:53:49;;;;;;;;;10.00;5.67;;;;;11.51;69.05;102029.59;4950768;28;45461;-73
2021/10/22 09:56:22;;;;;;;;;5.00;4.00;;;;;11.54;68.92;102036.72;4950089;28;45574;-73
2021/10/22 09:59:23;;;;;;;;;8.00;4.00;;;;;11.61;68.96;102032.47;4950478;28;46779;-73
2021/10/22 10:01:49;;;;;;;;;3.33;3.33;;;;;11.63;68.63;102026.38;4950762;28;45510;-73
2021/10/22 10:04:15;;;;;;;;;4.33;2.00;;;;;11.69;68.84;102036.22;4964714;28;45427;-73
2021/10/22 10:06:40;;;;;;;;;2.00;2.00;;;;;11.71;68.65;102027.44;4953782;28;45474;-74
2021/10/22 10:09:08;;;;;;;;;10.67;2.00;;;;;11.77;68.67;102037.28;4950550;28;47403;-73
2021/10/22 10:11:34;;;;;;;;;7.67;3.00;;;;;11.83;68.63;102029.56;4952692;28;45495;-73
2021/10/22 10:14:01;;;;;;;;;3.00;3.00;;;;;11.90;68.70;102046.50;4953279;28;45414;-73
2021/10/22 10:16:28;;;;;;;;;3.00;3.00;;;;;11.94;68.46;102048.38;4952971;28;45407;-73
2021/10/22 10:18:58;;;;;;;;;3.33;3.00;;;;;12.00;68.39;102041.47;4954231;28;46468;-73
2021/10/22 10:21:23;;;;;;;;;4.00;3.00;;;;;12.04;68.31;102043.34;4938810;28;45659;-72
2021/10/22 10:23:50;;;;;;;;;3.00;1.67;;;;;12.08;67.88;102041.63;4938865;28;47086;-73
2021/10/22 10:26:20;;;;;;;;;3.00;3.00;;;;;12.11;67.96;102046.13;4945727;28;45467;-74
2021/10/22 10:28:46;;;;;;;;;5.00;3.00;;;;;12.11;67.98;102044.38;4953531;28;47672;-73
2021/10/22 10:31:41;;;;;;;;;4.00;3.00;;;;;12.19;67.90;102042.78;4955300;28;45772;-73
2021/10/22 10:34:29;;;;;;;;;2.67;1.33;;;;;12.26;67.27;102049.13;4950504;28;45384;-73
2021/10/22 10:36:55;;;;;;;;;5.00;2.00;;;;;12.27;67.54;102042.97;4954454;28;45384;-73
2021/10/22 10:39:46;;;;;;;;;3.00;3.00;;;;;12.36;66.87;102051.16;4954260;28;46478;-73
2021/10/22 10:42:29;;;;;;;;;5.00;2.00;;;;;12.41;67.56;102052.16;4954226;28;45814;-73
2021/10/22 10:44:56;;;;;;;;;2.67;2.67;;;;;12.46;66.92;102047.81;4954222;28;45457;-73
2021/10/22 10:47:28;;;;;;;;;7.67;3.00;;;;;12.53;67.26;102046.22;4955580;28;45564;-73
2021/10/22 10:49:53;;;;;;;;;4.00;2.00;;;;;12.59;67.50;102047.25;4966224;28;46450;-73
2021/10/22 10:52:40;;;;;;;;;2.00;2.00;;;;;12.67;67.34;102047.41;4954653;28;45431;-73
2021/10/22 10:55:19;;;;;;;;;3.00;3.00;;;;;12.67;66.75;102031.50;4953031;28;45291;-73
2021/10/22 10:57:49;;;;;;;;;3.00;3.00;;;;;12.76;65.46;102039.66;4968422;28;45564;-74
2021/10/22 11:00:15;;;;;;;;;3.00;3.00;;;;;12.81;66.30;102039.75;4953375;28;47497;-73
2021/10/22 11:03:04;;;;;;;;;1.00;1.00;;;;;12.88;66.35;102030.19;4953811;28;45330;-73
2021/10/22 11:05:43;;;;;;;;;2.67;1.00;;;;;12.93;64.51;102044.41;4964879;28;45442;-73
2021/10/22 11:08:15;;;;;;;;;2.00;2.00;;;;;12.99;65.91;102036.59;4951283;28;45447;-73
2021/10/22 11:11:20;;;;;;;;;1.00;1.00;;;;;13.06;66.48;102047.38;4946224;28;47567;-73
2021/10/22 11:14:15;;;;;;;;;2.00;2.00;;;;;13.07;66.07;102032.34;4952184;28;45536;-72
2021/10/22 11:16:44;;;;;;;;;4.67;2.00;;;;;13.16;65.88;102040.50;4958504;28;45883;-73
2021/10/22 11:19:11;;;;;;;;;3.67;1.00;;;;;13.21;65.67;102035.25;4966464;28;45347;-73
2021/10/22 11:21:38;;;;;;;;;3.33;2.00;;;;;13.25;65.59;102039.81;4951594;28;45950;-72
2021/10/22 11:24:05;;;;;;;;;1.00;1.00;;;;;13.28;64.64;102026.59;4950314;28;45469;-73
2021/10/22 11:26:30;;;;;;;;;2.00;2.00;;;;;13.31;65.12;102031.94;4951982;28;45626;-77
2021/10/22 11:28:58;;;;;;;;;1.33;1.33;;;;;13.45;64.87;102033.13;4959476;28;45548;-79
2021/10/22 11:31:49;;;;;;;;;2.00;2.00;;;;;13.53;64.63;102034.16;4952693;28;46360;-77